Date,TemperatureHighF,TemperatureAvgF,TemperatureLowF,DewpointHighF,DewpointAvgF,DewpointLowF,HumidityHigh,HumidityAvg,HumidityLow,PressureMaxIn,PressureMinIn,WindSpeedMaxMPH,WindSpeedAvgMPH,GustSpeedMaxMPH,PrecipitationSumIn
2013-3-1,81,58,41,53,47,40,95,70,30,30.21,30.00,7,1,10,0.00
2013-3-2,75,58,46,54,49,44,91,72,45,30.03,29.83,5,1,8,0.00
2013-3-3,74,57,49,53,48,45,91,75,39,29.87,29.76,10,2,11,0.00
2013-3-4,65,50,40,50,44,36,93,83,58,29.93,29.83,6,1,9,0.00
2013-3-5,55,48,38,49,42,36,96,83,65,29.85,29.54,12,3,18,0.63
2013-3-6,60,49,37,49,43,35,95,81,46,29.84,29.57,14,4,20,0.35
2013-3-7,60,47,35,45,38,34,96,74,46,30.42,29.65,6,1,9,0.00
2013-3-8,70,52,36,43,37,33,91,62,27,29.81,29.61,9,3,15,0.00
2013-3-9,81,56,37,44,38,25,89,58,14,30.10,29.81,7,2,10,0.00
2013-3-10,78,55,37,47,38,22,90,62,14,30.12,30.00,7,2,9,0.00
2013-3-11,78,54,36,51,42,34,93,69,29,30.05,29.86,8,1,13,0.00
2013-3-12,80,57,41,56,46,38,96,72,37,29.94,29.83,8,2,11,0.00
2013-3-13,87,60,41,55,47,39,95,68,21,29.94,29.82,6,1,8,0.00
2013-3-14,78,58,45,58,48,32,92,72,21,29.95,29.85,5,1,7,0.00
2013-3-15,81,59,42,55,46,40,93,67,27,29.91,29.79,8,2,12,0.00
2013-3-16,81,59,40,50,40,21,93,58,12,29.92,29.78,11,3,23,0.04
2013-3-17,77,59,48,46,41,26,79,55,16,29.92,29.80,10,4,17,0.00
2013-3-18,73,55,39,49,43,36,91,67,35,29.89,29.78,6,2,9,0.00
2013-3-19,62,53,43,51,45,39,90,75,49,29.90,29.83,4,0,8,0.09
2013-3-20,66,54,46,57,50,45,96,88,69,29.92,29.83,6,2,11,0.33
2013-3-21,74,55,41,46,41,38,91,63,32,29.92,29.78,7,3,10,0.00
2013-3-22,75,56,44,39,33,20,71,47,15,29.91,29.80,7,4,12,0.00
2013-3-23,75,55,40,44,38,30,84,57,20,29.92,29.79,8,2,11,0.00
2013-3-24,46,44,43,41,40,39,86,84,81,29.86,29.85,0,0,2,0.00
2013-3-25,75,56,44,41,34,20,71,48,14,30.08,29.97,7,4,12,0.00
2013-3-26,75,56,40,42,37,30,85,53,20,30.10,29.97,8,2,11,0.00
2013-3-27,71,54,42,50,42,39,92,66,31,30.09,29.95,6,2,9,0.00
2013-3-28,70,56,49,58,51,47,94,85,63,30.05,29.96,3,0,7,0.01
2013-3-29,83,62,48,59,52,47,97,74,37,30.06,29.95,9,2,12,0.00
2013-3-30,72,58,52,58,52,48,93,79,52,30.04,29.95,8,2,11,0.05
2013-3-31,65,56,51,57,54,50,97,92,70,30.04,29.96,4,1,8,0.93